sensor_id;sensor_type;location;lat;lon;timestamp;P1;durP1;ratioP1;P2;durP2;ratioP2
5678;SDS011;2862;52.560;13.566;2024-02-23T00:02:00;9.17;;;0.20;;
5678;SDS011;2862;52.560;13.566;2024-02-23T00:12:03;9.67;;;0.30;;
5678;SDS011;2862;52.560;13.566;2024-02-23T00:22:09;9.53;;;0.20;;
5678;SDS011;2862;52.560;13.566;2024-02-23T00:32:12;11.67;;;0.30;;
5678;SDS011;2862;52.560;13.566;2024-02-23T00:42:17;12.40;;;0.30;;
5678;SDS011;2862;52.560;13.566;2024-02-23T00:52:23;10.23;;;0.20;;
5678;SDS011;2862;52.560;13.566;2024-02-23T01:02:28;10.30;;;0.30;;
5678;SDS011;2862;52.560;13.566;2024-02-23T01:12:32;12.37;;;0.20;;
5678;SDS011;2862;52.560;13.566;2024-02-23T01:22:36;10.20;;;0.20;;
5678;SDS011;2862;52.560;13.566;2024-02-23T01:32:40;10.63;;;0.30;;
5678;SDS011;2862;52.560;13.566;2024-02-23T01:42:44;9.60;;;0.30;;
5678;SDS011;2862;52.560;13.566;2024-02-23T01:52:48;11.90;;;0.60;;
5678;SDS011;2862;52.560;13.566;2024-02-23T02:02:54;9.80;;;0.20;;
5678;SDS011;2862;52.560;13.566;2024-02-23T02:13:01;16.00;;;1.00;;
5678;SDS011;2862;52.560;13.566;2024-02-23T02:23:06;11.43;;;0.20;;
5678;SDS011;2862;52.560;13.566;2024-02-23T02:33:12;9.37;;;0.20;;
5678;SDS011;2862;52.560;13.566;2024-02-23T02:43:16;10.30;;;0.20;;
5678;SDS011;2862;52.560;13.566;2024-02-23T02:53:19;11.77;;;0.20;;
5678;SDS011;2862;52.560;13.566;2024-02-23T03:03:24;11.80;;;0.20;;
5678;SDS011;2862;52.560;13.566;2024-02-23T03:13:27;9.83;;;0.10;;
5678;SDS011;2862;52.560;13.566;2024-02-23T03:23:31;10.40;;;0.10;;
5678;SDS011;2862;52.560;13.566;2024-02-23T03:33:34;11.90;;;0.20;;
5678;SDS011;2862;52.560;13.566;2024-02-23T03:43:39;11.27;;;0.20;;
5678;SDS011;2862;52.560;13.566;2024-02-23T03:53:42;12.03;;;0.27;;
5678;SDS011;2862;52.560;13.566;2024-02-23T04:03:46;11.67;;;0.20;;
5678;SDS011;2862;52.560;13.566;2024-02-23T04:13:49;11.57;;;0.20;;
5678;SDS011;2862;52.560;13.566;2024-02-23T04:23:54;11.00;;;0.20;;
5678;SDS011;2862;52.560;13.566;2024-02-23T04:33:57;10.10;;;0.10;;
5678;SDS011;2862;52.560;13.566;2024-02-23T04:44:01;10.30;;;0.10;;
5678;SDS011;2862;52.560;13.566;2024-02-23T04:54:04;11.10;;;0.20;;
5678;SDS011;2862;52.560;13.566;2024-02-23T05:04:09;12.00;;;0.20;;
5678;SDS011;2862;52.560;13.566;2024-02-23T05:14:12;16.27;;;0.20;;
5678;SDS011;2862;52.560;13.566;2024-02-23T05:24:16;10.40;;;0.17;;
5678;SDS011;2862;52.560;13.566;2024-02-23T05:34:19;9.93;;;0.10;;
5678;SDS011;2862;52.560;13.566;2024-02-23T05:44:23;12.10;;;0.20;;
5678;SDS011;2862;52.560;13.566;2024-02-23T05:54:27;11.20;;;0.20;;
5678;SDS011;2862;52.560;13.566;2024-02-23T06:04:31;12.33;;;0.20;;
5678;SDS011;2862;52.560;13.566;2024-02-23T06:14:34;10.23;;;0.10;;
5678;SDS011;2862;52.560;13.566;2024-02-23T06:24:38;10.20;;;0.10;;
5678;SDS011;2862;52.560;13.566;2024-02-23T06:34:41;15.70;;;0.20;;
5678;SDS011;2862;52.560;13.566;2024-02-23T06:44:49;10.17;;;0.10;;
5678;SDS011;2862;52.560;13.566;2024-02-23T06:54:52;11.23;;;0.20;;
5678;SDS011;2862;52.560;13.566;2024-02-23T07:04:56;10.60;;;0.20;;
5678;SDS011;2862;52.560;13.566;2024-02-23T07:15:00;11.47;;;0.20;;
5678;SDS011;2862;52.560;13.566;2024-02-23T07:25:05;11.20;;;0.20;;
5678;SDS011;2862;52.560;13.566;2024-02-23T07:35:09;13.03;;;0.40;;
5678;SDS011;2862;52.560;13.566;2024-02-23T07:45:13;11.07;;;0.20;;
5678;SDS011;2862;52.560;13.566;2024-02-23T07:55:16;10.60;;;0.23;;
5678;SDS011;2862;52.560;13.566;2024-02-23T08:05:20;10.70;;;0.20;;
5678;SDS011;2862;52.560;13.566;2024-02-23T08:15:23;11.13;;;0.20;;
5678;SDS011;2862;52.560;13.566;2024-02-23T08:25:27;12.87;;;0.30;;
5678;SDS011;2862;52.560;13.566;2024-02-23T08:35:30;10.87;;;0.20;;
5678;SDS011;2862;52.560;13.566;2024-02-23T08:45:35;11.60;;;0.20;;
5678;SDS011;2862;52.560;13.566;2024-02-23T08:55:38;11.60;;;0.20;;
5678;SDS011;2862;52.560;13.566;2024-02-23T09:05:42;11.23;;;0.20;;
5678;SDS011;2862;52.560;13.566;2024-02-23T09:15:45;10.60;;;0.20;;
5678;SDS011;2862;52.560;13.566;2024-02-23T09:25:49;12.67;;;0.20;;
5678;SDS011;2862;52.560;13.566;2024-02-23T09:35:52;18.10;;;0.20;;
5678;SDS011;2862;52.560;13.566;2024-02-23T09:45:57;11.20;;;0.10;;
5678;SDS011;2862;52.560;13.566;2024-02-23T09:56:00;16.40;;;0.63;;
5678;SDS011;2862;52.560;13.566;2024-02-23T10:06:05;13.50;;;0.50;;
5678;SDS011;2862;52.560;13.566;2024-02-23T10:16:09;11.77;;;0.20;;
5678;SDS011;2862;52.560;13.566;2024-02-23T10:26:15;11.60;;;0.20;;
5678;SDS011;2862;52.560;13.566;2024-02-23T10:36:20;11.17;;;0.20;;
5678;SDS011;2862;52.560;13.566;2024-02-23T10:46:25;11.93;;;0.20;;
5678;SDS011;2862;52.560;13.566;2024-02-23T10:56:29;11.67;;;0.20;;
5678;SDS011;2862;52.560;13.566;2024-02-23T11:06:34;12.27;;;0.20;;
5678;SDS011;2862;52.560;13.566;2024-02-23T11:16:38;15.53;;;0.40;;
5678;SDS011;2862;52.560;13.566;2024-02-23T11:26:43;11.63;;;0.20;;
5678;SDS011;2862;52.560;13.566;2024-02-23T11:36:45;13.17;;;0.20;;
5678;SDS011;2862;52.560;13.566;2024-02-23T11:46:55;12.50;;;0.37;;
5678;SDS011;2862;52.560;13.566;2024-02-23T11:56:58;11.03;;;0.20;;
5678;SDS011;2862;52.560;13.566;2024-02-23T12:07:03;11.87;;;0.20;;
5678;SDS011;2862;52.560;13.566;2024-02-23T12:17:07;10.80;;;0.20;;
5678;SDS011;2862;52.560;13.566;2024-02-23T12:27:11;13.50;;;0.20;;
5678;SDS011;2862;52.560;13.566;2024-02-23T12:37:19;12.70;;;0.17;;
5678;SDS011;2862;52.560;13.566;2024-02-23T12:47:25;11.10;;;0.20;;
5678;SDS011;2862;52.560;13.566;2024-02-23T12:57:28;11.63;;;0.20;;
5678;SDS011;2862;52.560;13.566;2024-02-23T13:07:38;11.10;;;0.10;;
5678;SDS011;2862;52.560;13.566;2024-02-23T13:17:58;24.83;;;3.70;;
5678;SDS011;2862;52.560;13.566;2024-02-23T13:28:39;11.90;;;0.30;;
5678;SDS011;2862;52.560;13.566;2024-02-23T13:38:50;12.50;;;0.30;;
5678;SDS011;2862;52.560;13.566;2024-02-23T13:49:10;13.43;;;0.20;;
5678;SDS011;2862;52.560;13.566;2024-02-23T13:59:43;11.53;;;0.20;;
5678;SDS011;2862;52.560;13.566;2024-02-23T14:10:40;14.13;;;0.30;;
5678;SDS011;2862;52.560;13.566;2024-02-23T14:21:21;12.57;;;0.27;;
5678;SDS011;2862;52.560;13.566;2024-02-23T14:31:50;10.60;;;0.20;;
5678;SDS011;2862;52.560;13.566;2024-02-23T14:42:29;17.77;;;0.40;;
5678;SDS011;2862;52.560;13.566;2024-02-23T14:53:17;20.47;;;0.27;;
5678;SDS011;2862;52.560;13.566;2024-02-23T15:03:33;11.83;;;0.20;;
5678;SDS011;2862;52.560;13.566;2024-02-23T15:13:43;11.40;;;0.30;;
5678;SDS011;2862;52.560;13.566;2024-02-23T15:24:21;11.80;;;0.20;;
5678;SDS011;2862;52.560;13.566;2024-02-23T15:45:37;13.17;;;0.50;;
5678;SDS011;2862;52.560;13.566;2024-02-23T15:55:59;12.30;;;0.30;;
5678;SDS011;2862;52.560;13.566;2024-02-23T16:18:10;13.93;;;1.23;;
5678;SDS011;2862;52.560;13.566;2024-02-23T16:29:41;15.40;;;0.30;;
5678;SDS011;2862;52.560;13.566;2024-02-23T16:40:12;13.70;;;0.43;;
5678;SDS011;2862;52.560;13.566;2024-02-23T16:50:40;14.80;;;0.40;;
5678;SDS011;2862;52.560;13.566;2024-02-23T17:00:45;18.30;;;0.40;;
5678;SDS011;2862;52.560;13.566;2024-02-23T17:10:49;15.93;;;0.50;;
5678;SDS011;2862;52.560;13.566;2024-02-23T17:20:53;14.40;;;0.33;;
5678;SDS011;2862;52.560;13.566;2024-02-23T17:30:57;14.47;;;0.50;;
5678;SDS011;2862;52.560;13.566;2024-02-23T17:41:01;15.00;;;0.90;;
5678;SDS011;2862;52.560;13.566;2024-02-23T17:51:03;14.37;;;1.23;;
5678;SDS011;2862;52.560;13.566;2024-02-23T18:01:08;21.03;;;2.43;;
5678;SDS011;2862;52.560;13.566;2024-02-23T18:11:10;18.47;;;0.70;;
5678;SDS011;2862;52.560;13.566;2024-02-23T18:21:15;16.20;;;0.97;;
5678;SDS011;2862;52.560;13.566;2024-02-23T18:31:18;17.20;;;2.37;;
5678;SDS011;2862;52.560;13.566;2024-02-23T18:41:23;17.43;;;1.10;;
5678;SDS011;2862;52.560;13.566;2024-02-23T18:51:26;17.63;;;1.17;;
5678;SDS011;2862;52.560;13.566;2024-02-23T19:01:31;15.63;;;1.30;;
5678;SDS011;2862;52.560;13.566;2024-02-23T19:11:34;18.23;;;2.30;;
5678;SDS011;2862;52.560;13.566;2024-02-23T19:21:38;16.63;;;1.00;;
5678;SDS011;2862;52.560;13.566;2024-02-23T19:31:42;14.80;;;1.03;;
5678;SDS011;2862;52.560;13.566;2024-02-23T19:41:46;23.53;;;2.57;;
5678;SDS011;2862;52.560;13.566;2024-02-23T19:51:49;17.80;;;2.00;;
5678;SDS011;2862;52.560;13.566;2024-02-23T20:01:55;15.17;;;1.43;;
5678;SDS011;2862;52.560;13.566;2024-02-23T20:11:59;17.27;;;1.33;;
5678;SDS011;2862;52.560;13.566;2024-02-23T20:22:04;16.97;;;1.97;;
5678;SDS011;2862;52.560;13.566;2024-02-23T20:32:06;14.80;;;1.13;;
5678;SDS011;2862;52.560;13.566;2024-02-23T20:42:14;15.30;;;1.10;;
5678;SDS011;2862;52.560;13.566;2024-02-23T20:52:17;17.30;;;2.40;;
5678;SDS011;2862;52.560;13.566;2024-02-23T21:02:21;17.83;;;2.67;;
5678;SDS011;2862;52.560;13.566;2024-02-23T21:12:24;17.67;;;2.10;;
5678;SDS011;2862;52.560;13.566;2024-02-23T21:22:28;18.50;;;2.00;;
5678;SDS011;2862;52.560;13.566;2024-02-23T21:32:31;28.73;;;3.70;;
5678;SDS011;2862;52.560;13.566;2024-02-23T21:42:36;24.23;;;2.10;;
5678;SDS011;2862;52.560;13.566;2024-02-23T21:52:39;18.00;;;3.03;;
5678;SDS011;2862;52.560;13.566;2024-02-23T22:02:43;15.90;;;1.80;;
5678;SDS011;2862;52.560;13.566;2024-02-23T22:12:46;17.30;;;1.47;;
5678;SDS011;2862;52.560;13.566;2024-02-23T22:22:50;20.27;;;2.30;;
5678;SDS011;2862;52.560;13.566;2024-02-23T22:32:53;16.23;;;1.73;;
5678;SDS011;2862;52.560;13.566;2024-02-23T22:42:58;16.07;;;1.53;;
5678;SDS011;2862;52.560;13.566;2024-02-23T22:53:01;14.63;;;1.10;;
5678;SDS011;2862;52.560;13.566;2024-02-23T23:03:05;23.10;;;2.00;;
5678;SDS011;2862;52.560;13.566;2024-02-23T23:13:08;16.53;;;1.60;;
5678;SDS011;2862;52.560;13.566;2024-02-23T23:23:12;16.10;;;1.50;;
5678;SDS011;2862;52.560;13.566;2024-02-23T23:33:15;15.90;;;1.40;;
5678;SDS011;2862;52.560;13.566;2024-02-23T23:43:20;15.50;;;1.67;;
5678;SDS011;2862;52.560;13.566;2024-02-23T23:53:23;19.67;;;2.10;;
